Annette Island, AK

3:29 PM AKDT on March 29, 2015 (GMT -0800)
Metlakatla | | Change Station
CLOSE
Current Station
Airport
Location: Metlakatla,
Elevation: 0 ft
Nearby Weather Stations

Elev 0 ft 55.13 °N, 131.58 °W | Updated 13 minutes ago

Mostly Cloudy
Mostly Cloudy
48 °F
Feels Like 48 °F
N
9
Wind Variable Wind from South
Gusts 17 mph

Today
High -- | Low -- °F
--% Chance of Precip.
Yesterday
High -- | Low -- °F
Precip. -- in
6:25 AM 7:17 PM
Waxing Gibbous, 75% visible
Pressure 29.98 in
Visibility 10.0 miles
Clouds Scattered Clouds 3900 ft
Scattered Clouds 8000 ft
Mostly Cloudy 12000 ft
Dew Point 37 °F
Humidity 66%
Rainfall 0.14 in
Snow Depth Not available.
UV 2 out of 12
Pollen Not available.
Air Quality Not available.
Flu Activity Not available.
METAR PAMM 292316Z AUTO 17008G15KT 140V210 10SM SCT039 SCT080 BKN120 09/03 A2998 RMK AO1

More Conditions Fewer Conditions

Pressure 29.98 in
Visibility 10.0 miles
Clouds Scattered Clouds 3900 ft
Scattered Clouds 8000 ft
Mostly Cloudy 12000 ft
Dew Point 37 °F
Humidity 66%
Rainfall 0.14 in
Snow Depth Not available.
UV 2 out of 12
Pollen Not available.
Air Quality Not available.
Flu Activity Not available.
METAR PAMM 292316Z AUTO 17008G15KT 140V210 10SM SCT039 SCT080 BKN120 09/03 A2998 RMK AO1

More Conditions Fewer Conditions

10-Day Weather Forecast

Almanac

Astronomy

Mar. 29, 2015 Rise Set
Actual Time
Civil Twilight
Nautical Twilight
Astronomical Twilight
Moon
Length of Visible Light
Length of Day
Tomorrow will be .
, % of the Moon is Illuminated

Today's Extremes

State Highs State Lows

Community

WunderPhotos

Upload Photos

1,809,379 photos uploaded!

WunderBlogs® & News

Nearby

Air Quality

  Air Quality AQ Index Pollutant
Not available.

Snow Depth

Station Depth Elevation

Earthquake Activity

City Distance Mag. Time & Date
Minimum magnitude displayed is 2.5.

Coastal Water Temperatures

Place Temperature

Stations

Nearby Weather Stations

Station Location Temp. Windchill Dew Point Humidity Wind Precip. Elev Updated Type